GLRB Airport Information

Runway Information
Runway 04 Length 11000 ft width 150 ft
Elevation 29 ft Threshold 0 ft Heading 31
Runway 22 Length 11000 ft Width 150 ft
Elevation 25 ft Threshold 1200 ft Heading 211
Airport Frequencies
Type A/G Name A/G VOICE Frequency 345.2 MHZ
Type APP Name ROBERTS AP Frequency 124.5 MHZ
Type GND Name GND Frequency 121.9 MHZ
Type TWR Name ROBERTS TW Frequency 118.3 MHZ
Airport Navaids
Type NDB Name Monrovia Roberts Frequency 263 KHZ
Type NDB Name Monrovia Roberts Frequency 372 KHZ
Type VOR-DME Name Monrovia Roberts Frequency 113800 KHZ
Airport Weather Information & NOTAM
ADDS - METARS form results

(1009 UTC 18 August 2018)
 
METAR text: GLRB 181000Z 20009KT 9OOO -RA FEW006 BKN013 FEW024CB 27/24 Q1015 TEMPO RA RMK CB-NE/SW
Conditions at: GLRB (ROBERTS INTL/MON, LR) observed 1000 UTC 18 August 2018
Temperature: 27.0°C (81°F)
Dewpoint: 24.0°C (75°F) [RH = 84%]
Pressure (altimeter): 29.97 inches Hg (1015.0 mb)
Winds: from the SSW (200 degrees) at 10 MPH (9 knots; 4.7 m/s)
Visibility: missing
Ceiling: 1300 feet AGL
Clouds: few clouds at 600 feet AGL
broken clouds at 1300 feet AGL
few clouds at 2400 feet AGL
Weather: -RA  (light rain)

METAR text: GLRB 180930Z 22008KT 9999 BKN013 FEW024CB 27/25 Q1015 RMK CB-NE/SW
Conditions at: GLRB (ROBERTS INTL/MON, LR) observed 0930 UTC 18 August 2018
Temperature: 27.0°C (81°F)
Dewpoint: 25.0°C (77°F) [RH = 89%]
Pressure (altimeter): 29.97 inches Hg (1015.0 mb)
Winds: from the SW (220 degrees) at 9 MPH (8 knots; 4.2 m/s)
Visibility: 6 or more miles (10+ km)
Ceiling: 1300 feet AGL
Clouds: broken clouds at 1300 feet AGL
few clouds at 2400 feet AGL
Weather: no significant weather observed at this time